Time;durP1;ratioP1;P1;durP2;ratioP2;P2;SDS_P1;SDS_P2;PMS_P1;PMS_P2;Temp;Humidity;BMP_temperature;BMP_pressure;BME280_temperature;BME280_humidity;BME280_pressure;Samples;Min_cycle;Max_cycle;Signal;HPM_P1;HPM_P2
2021/08/10 06:32:38;;;;;;;3.33;1.67;;;20.70;96.60;;;;;;5129303;27;20134;-77
2021/08/10 06:35:04;;;;;;;6.53;1.80;;;20.70;97.10;;;;;;5115356;28;20479;-75
2021/08/10 06:37:30;;;;;;;3.90;1.90;;;20.80;97.10;;;;;;5119391;28;20479;-77
2021/08/10 06:39:55;;;;;;;7.40;1.70;;;20.80;97.10;;;;;;5128347;28;20019;-79
2021/08/10 06:42:22;;;;;;;7.55;1.75;;;20.80;97.20;;;;;;5127205;28;20100;-76
2021/08/10 06:44:48;;;;;;;7.85;1.42;;;20.80;97.10;;;;;;5111198;28;20027;-77
2021/08/10 06:47:15;;;;;;;3.95;1.35;;;20.90;97.20;;;;;;5119594;28;20384;-79
2021/08/10 06:49:42;;;;;;;7.03;2.03;;;20.90;97.10;;;;;;5108753;28;20471;-79
2021/08/10 06:52:09;;;;;;;7.30;1.60;;;20.90;97.00;;;;;;5108766;28;20119;-77
2021/08/10 06:54:36;;;;;;;9.40;2.47;;;21.00;97.00;;;;;;5121343;28;20020;-78
2021/08/10 06:57:06;;;;;;;8.13;3.45;;;21.00;97.20;;;;;;5108284;28;20442;-77
2021/08/10 06:59:33;;;;;;;14.95;3.85;;;21.00;97.10;;;;;;5108287;28;20522;-78
2021/08/10 07:01:58;;;;;;;12.00;3.97;;;21.10;97.30;;;;;;5108813;28;20039;-77
2021/08/10 07:04:24;;;;;;;16.67;5.30;;;21.10;97.40;;;;;;5108296;28;20028;-75
2021/08/10 07:06:50;;;;;;;11.98;5.38;;;21.20;97.30;;;;;;5119530;28;20092;-81
2021/08/10 07:09:16;;;;;;;12.68;4.88;;;21.20;97.50;;;;;;5125130;28;20499;-77
2021/08/10 07:11:43;;;;;;;12.40;4.63;;;21.30;97.40;;;;;;5106169;28;20036;-79
2021/08/10 07:14:12;;;;;;;16.08;5.30;;;21.30;97.50;;;;;;5107550;28;20028;-76
2021/08/10 07:16:41;;;;;;;6.80;4.20;;;21.30;97.40;;;;;;5115252;28;20042;-78
2021/08/10 07:19:06;;;;;;;9.10;3.75;;;21.40;97.50;;;;;;5108051;28;20560;-75
2021/08/10 07:21:32;;;;;;;14.88;4.18;;;21.40;97.40;;;;;;5109724;28;20110;-75
2021/08/10 07:23:58;;;;;;;13.18;3.42;;;21.50;97.40;;;;;;5127449;28;20037;-78
2021/08/10 07:26:24;;;;;;;8.27;3.45;;;21.50;97.30;;;;;;5127009;28;20023;-73
2021/08/10 07:28:50;;;;;;;11.85;4.03;;;21.50;97.30;;;;;;5107366;28;20024;-76
2021/08/10 07:31:16;;;;;;;9.27;3.55;;;21.50;97.40;;;;;;5106305;28;20376;-79
2021/08/10 07:33:41;;;;;;;11.48;3.72;;;21.50;97.50;;;;;;5107083;28;20028;-74
2021/08/10 07:36:07;;;;;;;8.30;3.00;;;21.60;97.60;;;;;;5106084;28;20023;-78
2021/08/10 07:38:33;;;;;;;10.73;3.88;;;21.60;97.50;;;;;;5111287;28;20074;-77
2021/08/10 07:40:59;;;;;;;7.35;3.45;;;21.60;97.60;;;;;;5128076;28;20027;-80
2021/08/10 07:43:24;;;;;;;7.03;2.50;;;21.60;97.40;;;;;;5105024;28;20472;-75
2021/08/10 07:45:50;;;;;;;9.20;3.47;;;21.60;97.40;;;;;;5097342;28;20032;-76
2021/08/10 07:48:16;;;;;;;10.57;3.20;;;21.70;97.50;;;;;;5094316;28;20044;-77
2021/08/10 07:50:43;;;;;;;6.03;3.00;;;21.70;97.40;;;;;;5105495;28;20090;-77
2021/08/10 07:53:09;;;;;;;6.72;2.95;;;21.70;97.40;;;;;;5096491;28;20043;-73
2021/08/10 07:55:36;;;;;;;6.13;2.72;;;21.70;97.20;;;;;;5075126;28;20491;-74
2021/08/10 07:58:02;;;;;;;10.80;2.40;;;21.70;97.10;;;;;;5075217;28;20028;-78
2021/08/10 08:00:27;;;;;;;6.95;2.60;;;21.70;97.00;;;;;;5092925;28;20073;-74
2021/08/10 08:02:53;;;;;;;7.13;3.03;;;21.70;96.80;;;;;;5093462;28;20111;-76
2021/08/10 08:05:19;;;;;;;5.15;2.17;;;21.70;96.80;;;;;;5098722;28;20024;-78
2021/08/10 08:07:44;;;;;;;9.05;2.83;;;21.80;96.70;;;;;;5112682;28;20060;-72
2021/08/10 08:10:11;;;;;;;6.15;2.75;;;21.80;96.60;;;;;;5093179;28;20032;-72
2021/08/10 08:12:37;;;;;;;8.77;2.95;;;21.70;96.50;;;;;;5093696;28;20035;-72
2021/08/10 08:15:03;;;;;;;8.10;2.63;;;21.80;96.50;;;;;;5093468;28;20024;-76
2021/08/10 08:17:28;;;;;;;4.60;2.40;;;21.80;96.40;;;;;;5105562;28;20046;-72
2021/08/10 08:19:54;;;;;;;5.55;2.13;;;21.80;96.40;;;;;;5095457;28;20106;-74
2021/08/10 08:22:20;;;;;;;6.88;2.88;;;21.80;96.50;;;;;;5108885;28;20385;-71
2021/08/10 08:24:45;;;;;;;5.45;2.33;;;21.80;96.50;;;;;;5092341;28;20069;-72
2021/08/10 08:27:11;;;;;;;8.35;2.47;;;21.80;96.50;;;;;;5093215;28;20020;-74
2021/08/10 08:29:37;;;;;;;6.22;2.30;;;21.80;96.60;;;;;;5096318;28;20020;-72
2021/08/10 08:32:03;;;;;;;6.93;2.97;;;21.80;96.60;;;;;;5091963;28;20071;-72
2021/08/10 08:34:28;;;;;;;4.72;2.40;;;21.80;96.80;;;;;;5103044;28;20119;-72
2021/08/10 08:36:54;;;;;;;6.13;2.05;;;21.80;96.50;;;;;;5101766;28;20103;-73
2021/08/10 08:39:19;;;;;;;9.02;3.00;;;21.80;96.50;;;;;;5093054;28;20025;-72
2021/08/10 08:41:46;;;;;;;7.57;2.53;;;21.80;96.80;;;;;;5101036;28;20031;-74
2021/08/10 08:44:15;;;;;;;6.20;2.60;;;21.80;96.40;;;;;;5092977;28;20035;-73
2021/08/10 08:46:41;;;;;;;7.72;2.10;;;21.80;96.30;;;;;;5096492;28;20032;-72
2021/08/10 08:49:08;;;;;;;5.80;2.45;;;21.90;96.20;;;;;;5094986;28;20027;-77
2021/08/10 08:51:34;;;;;;;2.88;1.88;;;21.90;96.30;;;;;;5113230;28;20031;-72
2021/08/10 08:54:02;;;;;;;5.13;1.95;;;21.90;96.20;;;;;;5109244;28;20099;-72
2021/08/10 08:56:28;;;;;;;6.85;1.95;;;21.90;96.20;;;;;;5089296;28;20034;-73
2021/08/10 08:58:55;;;;;;;3.35;1.88;;;21.90;96.50;;;;;;5092094;28;20020;-73
2021/08/10 09:01:21;;;;;;;5.47;1.65;;;21.80;96.50;;;;;;5092575;28;20012;-73
2021/08/10 09:03:46;;;;;;;2.42;1.60;;;21.80;96.50;;;;;;5074341;28;20544;-73
2021/08/10 09:06:12;;;;;;;6.85;1.58;;;21.80;96.50;;;;;;5092613;28;20103;-73
2021/08/10 09:08:42;;;;;;;3.58;2.25;;;21.80;96.50;;;;;;5090731;28;20119;-72
2021/08/10 09:11:15;;;;;;;8.27;3.25;;;21.90;96.50;;;;;;5091771;28;20052;-74
2021/08/10 09:13:58;;;;;;;8.35;3.00;;;21.90;96.50;;;;;;5092625;28;20069;-79
2021/08/10 09:16:24;;;;;;;8.73;2.22;;;21.90;96.50;;;;;;5092316;28;20077;-73
2021/08/10 09:18:50;;;;;;;6.15;2.75;;;21.90;96.50;;;;;;5092493;28;20495;-73
2021/08/10 09:21:18;;;;;;;9.25;2.80;;;21.90;96.40;;;;;;5094223;28;20098;-77
2021/08/10 09:23:56;;;;;;;6.00;3.50;;;21.90;96.90;;;;;;5110914;28;20092;-74
2021/08/10 09:26:35;;;;;;;11.38;4.75;;;21.90;96.60;;;;;;5104035;28;20491;-73
2021/08/10 09:29:02;;;;;;;14.95;7.03;;;21.90;96.80;;;;;;5070508;28;20079;-74
2021/08/10 09:31:28;;;;;;;21.02;10.18;;;21.90;97.00;;;;;;5071536;28;20040;-76
2021/08/10 09:34:02;;;;;;;16.90;7.70;;;21.90;97.30;;;;;;5071554;28;20494;-73
2021/08/10 09:36:29;;;;;;;18.02;7.88;;;22.00;97.30;;;;;;5071935;28;20108;-77
2021/08/10 09:38:57;;;;;;;15.70;7.18;;;22.00;97.40;;;;;;5071517;28;20028;-81
2021/08/10 09:41:23;;;;;;;15.85;8.20;;;22.00;97.40;;;;;;5081402;28;20472;-73
2021/08/10 09:43:50;;;;;;;14.35;7.13;;;22.00;97.50;;;;;;5091812;28;20020;-74
2021/08/10 09:46:18;;;;;;;11.68;6.63;;;22.00;97.50;;;;;;5091882;28;20433;-74
2021/08/10 09:48:49;;;;;;;12.05;5.78;;;22.00;97.50;;;;;;5095064;28;20089;-73
2021/08/10 09:51:18;;;;;;;10.98;5.45;;;22.10;97.40;;;;;;5091378;28;20032;-74
2021/08/10 09:54:01;;;;;;;10.68;5.63;;;22.10;97.40;;;;;;5091969;28;20028;-73
2021/08/10 09:56:39;;;;;;;14.10;5.07;;;22.10;97.20;;;;;;5097500;28;20016;-73
2021/08/10 09:59:05;;;;;;;12.10;5.10;;;22.20;97.60;;;;;;5091225;28;20032;-73
2021/08/10 10:01:40;;;;;;;13.05;4.30;;;22.20;97.30;;;;;;5090159;28;20024;-74
2021/08/10 10:04:17;;;;;;;9.23;4.60;;;22.20;97.30;;;;;;5091372;28;20035;-73
2021/08/10 10:06:44;;;;;;;7.90;3.95;;;22.20;97.40;;;;;;5090992;28;20086;-73
2021/08/10 10:09:11;;;;;;;9.52;4.28;;;22.20;97.40;;;;;;5091212;28;20024;-74
2021/08/10 10:11:39;;;;;;;11.07;3.75;;;22.20;97.60;;;;;;5091411;28;20089;-73
2021/08/10 10:14:04;;;;;;;6.47;3.28;;;22.20;97.30;;;;;;5073085;28;20054;-75
2021/08/10 10:16:32;;;;;;;11.93;4.20;;;22.30;97.30;;;;;;5091099;28;20445;-75
2021/08/10 10:19:04;;;;;;;5.85;2.88;;;22.20;97.30;;;;;;5090992;28;20095;-74
2021/08/10 10:21:31;;;;;;;7.70;3.35;;;22.20;97.40;;;;;;5091328;28;20047;-73
2021/08/10 10:23:58;;;;;;;10.27;3.90;;;22.20;97.70;;;;;;5090945;28;20024;-77
2021/08/10 10:26:28;;;;;;;6.70;3.05;;;22.20;97.70;;;;;;5091280;28;20389;-76
2021/08/10 10:28:54;;;;;;;6.72;3.95;;;22.20;97.50;;;;;;5094237;28;20020;-78
2021/08/10 10:31:20;;;;;;;6.35;2.78;;;22.30;97.70;;;;;;5086003;28;20553;-77
2021/08/10 10:33:46;;;;;;;5.72;2.97;;;22.30;97.50;;;;;;5091245;28;20030;-81
2021/08/10 10:36:14;;;;;;;7.97;2.55;;;22.30;97.60;;;;;;5088991;28;20522;-75
2021/08/10 10:38:43;;;;;;;7.07;2.95;;;22.40;97.80;;;;;;5090554;28;20496;-75
2021/08/10 10:41:10;;;;;;;5.00;2.72;;;22.50;98.20;;;;;;5061907;28;20039;-75
2021/08/10 10:43:36;;;;;;;5.72;2.92;;;22.50;98.60;;;;;;5070694;28;20021;-76
2021/08/10 10:46:32;;;;;;;5.70;2.80;;;22.50;98.90;;;;;;5070487;28;20499;-74
2021/08/10 10:49:00;;;;;;;6.93;3.97;;;22.60;98.90;;;;;;5040614;28;20033;-75
2021/08/10 10:51:33;;;;;;;5.68;3.10;;;22.50;99.00;;;;;;5070831;28;20515;-72
2021/08/10 10:54:27;;;;;;;12.85;3.08;;;22.60;99.60;;;;;;5069008;28;20115;-73
2021/08/10 10:56:55;;;;;;;10.43;2.60;;;22.60;99.30;;;;;;5070530;28;20534;-73
2021/08/10 10:59:32;;;;;;;6.22;2.72;;;22.70;99.30;;;;;;5070673;28;20024;-74
2021/08/10 11:02:17;;;;;;;9.80;3.15;;;22.70;99.30;;;;;;5070239;28;20474;-73
2021/08/10 11:05:12;;;;;;;6.07;3.40;;;22.70;99.40;;;;;;5069131;28;20024;-73
2021/08/10 11:07:44;;;;;;;4.13;2.33;;;22.70;99.40;;;;;;5073040;28;20545;-73
2021/08/10 11:10:47;;;;;;;22.75;6.10;;;22.70;99.60;;;;;;5094586;28;20054;-74
2021/08/10 11:13:16;;;;;;;11.48;2.67;;;22.70;99.40;;;;;;5090677;28;20032;-72
2021/08/10 11:15:45;;;;;;;20.85;5.88;;;22.70;99.30;;;;;;5090067;28;20032;-73
2021/08/10 11:18:10;;;;;;;45.40;13.18;;;22.70;99.80;;;;;;5092308;28;20045;-72
2021/08/10 11:20:41;;;;;;;36.53;11.18;;;22.70;99.90;;;;;;5098165;28;20028;-69
2021/08/10 11:23:25;;;;;;;36.67;9.48;;;22.70;99.80;;;;;;5118713;28;20023;-72
2021/08/10 11:25:52;;;;;;;34.83;9.20;;;22.70;99.90;;;;;;5103752;28;20031;-72
2021/08/10 11:28:28;;;;;;;35.35;8.48;;;22.80;99.90;;;;;;5094941;28;20024;-72
2021/08/10 11:30:56;;;;;;;31.00;8.35;;;22.80;99.90;;;;;;5094038;28;20097;-72
2021/08/10 11:33:48;;;;;;;33.88;9.85;;;22.80;99.90;;;;;;5095257;28;20024;-71
2021/08/10 11:36:13;;;;;;;21.10;7.55;;;22.80;99.90;;;;;;5091259;28;20093;-72
2021/08/10 11:38:48;;;;;;;29.65;8.20;;;22.80;99.90;;;;;;5094316;28;20032;-72
2021/08/10 11:41:36;;;;;;;20.98;7.70;;;22.90;99.90;;;;;;5092073;28;20107;-72
2021/08/10 11:44:16;;;;;;;25.13;6.88;;;22.80;99.90;;;;;;5093309;28;20036;-72
2021/08/10 11:46:43;;;;;;;20.73;6.53;;;22.90;99.90;;;;;;5093762;28;20502;-72
2021/08/10 11:49:14;;;;;;;20.98;6.18;;;22.90;99.90;;;;;;5093695;28;20449;-72
2021/08/10 11:51:42;;;;;;;19.10;5.68;;;22.90;99.90;;;;;;5093905;28;20032;-72
2021/08/10 11:54:17;;;;;;;18.45;6.18;;;22.90;99.90;;;;;;5093353;28;20111;-72
2021/08/10 11:56:47;;;;;;;16.55;6.03;;;23.00;99.90;;;;;;5093398;28;20152;-71
2021/08/10 11:59:24;;;;;;;17.60;5.55;;;23.00;99.90;;;;;;5110675;28;20024;-72
2021/08/10 12:01:51;;;;;;;15.73;5.07;;;23.00;99.80;;;;;;5071844;28;20392;-71
2021/08/10 12:04:28;;;;;;;13.00;5.57;;;23.00;99.50;;;;;;5105864;28;20031;-71
2021/08/10 12:06:58;;;;;;;14.07;5.30;;;23.10;99.50;;;;;;5093249;28;20051;-72
2021/08/10 12:09:50;;;;;;;15.75;4.45;;;23.00;99.50;;;;;;5093230;28;20422;-71
2021/08/10 12:12:15;;;;;;;11.82;5.05;;;23.00;99.10;;;;;;5093042;28;20466;-71
2021/08/10 12:14:41;;;;;;;11.40;4.80;;;23.10;98.90;;;;;;5093187;28;20031;-71
2021/08/10 12:17:10;;;;;;;13.98;5.00;;;23.00;99.00;;;;;;5091636;28;20027;-72
2021/08/10 12:19:48;;;;;;;13.73;5.35;;;23.00;99.00;;;;;;5096647;28;20066;-72
2021/08/10 12:22:21;;;;;;;12.98;5.50;;;23.00;98.60;;;;;;5093156;28;20090;-71
2021/08/10 12:24:49;;;;;;;9.13;4.72;;;23.00;98.80;;;;;;5093500;28;20020;-71
2021/08/10 12:27:17;;;;;;;8.07;4.05;;;23.00;98.80;;;;;;5092943;28;20051;-71
2021/08/10 12:29:44;;;;;;;9.68;5.03;;;23.00;98.50;;;;;;5092790;28;20048;-71
2021/08/10 12:32:12;;;;;;;9.68;4.53;;;23.10;98.60;;;;;;5095969;28;20043;-73
2021/08/10 12:34:40;;;;;;;8.77;5.10;;;23.20;98.30;;;;;;5093123;28;20425;-72
2021/08/10 12:37:08;;;;;;;9.48;4.93;;;23.30;98.30;;;;;;5093993;28;20438;-73
2021/08/10 12:39:41;;;;;;;11.07;5.00;;;23.40;98.00;;;;;;5090791;28;20026;-72
2021/08/10 12:42:07;;;;;;;9.27;4.95;;;23.40;97.80;;;;;;5105722;28;20031;-73
2021/08/10 12:44:34;;;;;;;11.30;4.97;;;23.50;97.30;;;;;;5101921;28;20036;-70
2021/08/10 12:47:02;;;;;;;7.65;4.28;;;23.50;97.10;;;;;;5087887;28;20024;-71
2021/08/10 12:49:38;;;;;;;7.10;4.45;;;23.50;96.90;;;;;;5072766;28;20120;-71
2021/08/10 12:52:07;;;;;;;;;;;23.60;96.80;;;;;;5073789;28;20032;-71
2021/08/10 12:54:37;;;;;;;9.73;4.90;;;23.60;96.90;;;;;;5100275;28;19949;-72
2021/08/10 12:57:15;;;;;;;6.60;4.28;;;23.60;96.60;;;;;;5092349;28;20047;-72
2021/08/10 12:59:44;;;;;;;7.38;4.43;;;23.70;96.40;;;;;;5085208;28;20058;-73
2021/08/10 13:02:11;;;;;;;5.30;4.10;;;23.60;96.10;;;;;;5092248;28;20491;-73
2021/08/10 13:04:37;;;;;;;6.40;4.85;;;23.60;96.00;;;;;;5092332;28;20111;-73
2021/08/10 13:07:14;;;;;;;7.32;3.83;;;23.70;96.00;;;;;;5092096;28;20020;-73
2021/08/10 13:09:49;;;;;;;7.03;4.78;;;23.60;95.90;;;;;;5092455;28;20102;-73
2021/08/10 13:12:15;;;;;;;6.22;4.55;;;23.60;95.90;;;;;;5092208;28;20115;-73
2021/08/10 13:15:02;;;;;;;5.72;4.38;;;23.60;95.80;;;;;;5099178;28;20122;-73
2021/08/10 13:17:34;;;;;;;6.30;4.07;;;23.50;96.00;;;;;;5110923;28;20032;-71
2021/08/10 13:20:09;;;;;;;6.93;4.00;;;23.50;96.20;;;;;;5073480;28;20474;-72
2021/08/10 13:23:00;;;;;;;5.17;4.03;;;23.50;96.00;;;;;;5092371;28;20024;-72
2021/08/10 13:25:30;;;;;;;4.80;3.80;;;23.60;96.00;;;;;;5083305;28;20411;-71
2021/08/10 13:28:10;;;;;;;6.32;3.85;;;23.60;96.00;;;;;;5087190;28;20031;-71
2021/08/10 13:30:37;;;;;;;5.05;3.92;;;23.60;96.10;;;;;;5105036;28;20042;-72
2021/08/10 13:33:21;;;;;;;5.35;3.85;;;23.50;96.00;;;;;;5088997;28;20028;-72
2021/08/10 13:35:48;;;;;;;6.95;3.78;;;23.60;96.20;;;;;;5092319;28;20053;-72
2021/08/10 13:38:14;;;;;;;10.60;3.80;;;23.50;96.20;;;;;;5091627;28;20039;-71
2021/08/10 13:40:41;;;;;;;8.07;3.88;;;23.50;96.10;;;;;;5079741;28;20111;-71
2021/08/10 13:43:08;;;;;;;5.63;3.80;;;23.50;96.20;;;;;;5101012;28;20463;-71
2021/08/10 13:45:39;;;;;;;6.75;4.28;;;23.50;96.20;;;;;;5101688;28;20069;-71
2021/08/10 13:48:09;;;;;;;5.40;3.75;;;23.50;96.20;;;;;;5112006;28;20031;-71
2021/08/10 13:50:34;;;;;;;4.95;3.70;;;23.50;96.20;;;;;;5096204;28;20027;-71
2021/08/10 13:53:00;;;;;;;4.93;3.28;;;23.50;96.30;;;;;;5094612;28;20027;-70
2021/08/10 13:55:26;;;;;;;11.02;3.90;;;23.50;96.20;;;;;;5088474;28;20039;-71
2021/08/10 13:57:52;;;;;;;5.75;3.65;;;23.40;96.20;;;;;;5095289;28;20032;-71
2021/08/10 14:00:18;;;;;;;6.95;3.10;;;23.50;96.20;;;;;;5112187;28;20024;-71
2021/08/10 14:02:44;;;;;;;5.00;3.60;;;23.50;96.20;;;;;;5111817;28;20023;-71
2021/08/10 14:05:11;;;;;;;5.07;3.50;;;23.50;96.10;;;;;;5111748;28;20058;-71
2021/08/10 14:07:37;;;;;;;6.15;3.85;;;23.50;96.00;;;;;;5106654;28;20088;-71
2021/08/10 14:10:04;;;;;;;4.50;3.15;;;23.50;96.00;;;;;;5089504;28;20056;-71
2021/08/10 14:12:30;;;;;;;6.78;3.75;;;23.40;96.00;;;;;;5090026;28;20092;-71
2021/08/10 14:14:56;;;;;;;5.25;3.35;;;23.40;96.00;;;;;;5091174;28;20528;-71
2021/08/10 14:17:21;;;;;;;4.68;3.35;;;23.40;96.00;;;;;;5091406;28;20475;-71
2021/08/10 14:19:47;;;;;;;5.70;3.22;;;23.40;95.90;;;;;;5091708;28;20024;-72
2021/08/10 14:22:12;;;;;;;5.20;3.20;;;23.40;96.10;;;;;;5090857;28;20055;-72
2021/08/10 14:24:38;;;;;;;4.85;3.08;;;23.30;96.10;;;;;;5090475;28;20077;-72
2021/08/10 14:27:04;;;;;;;3.92;2.85;;;23.30;96.30;;;;;;5090914;28;20023;-71
2021/08/10 14:29:30;;;;;;;7.72;3.50;;;23.30;96.30;;;;;;5091264;28;20024;-72
2021/08/10 14:31:56;;;;;;;9.88;3.40;;;23.20;96.40;;;;;;5090900;28;20054;-71
2021/08/10 14:34:21;;;;;;;7.20;3.53;;;23.20;96.50;;;;;;5091035;28;20488;-72
2021/08/10 14:36:47;;;;;;;5.60;3.30;;;23.20;96.50;;;;;;5091458;28;20024;-72
2021/08/10 14:39:12;;;;;;;5.38;3.33;;;23.20;96.60;;;;;;5090672;28;20070;-72
2021/08/10 14:41:39;;;;;;;7.20;3.70;;;23.20;96.80;;;;;;5084290;28;20119;-73
2021/08/10 14:44:04;;;;;;;4.50;3.25;;;23.20;96.70;;;;;;5070814;28;20021;-74
2021/08/10 14:46:30;;;;;;;4.82;3.63;;;23.30;96.80;;;;;;5070942;28;20365;-72
2021/08/10 14:48:56;;;;;;;4.07;3.25;;;23.30;96.80;;;;;;5097290;28;20032;-72
2021/08/10 14:51:21;;;;;;;4.13;3.33;;;23.30;96.90;;;;;;5093369;28;20040;-73
2021/08/10 14:53:47;;;;;;;5.85;3.95;;;23.40;96.90;;;;;;5093867;28;20027;-73
2021/08/10 14:56:12;;;;;;;3.88;3.20;;;23.40;96.90;;;;;;5085968;28;20052;-72
2021/08/10 14:58:38;;;;;;;7.05;3.80;;;23.50;97.10;;;;;;5105968;28;20034;-72
2021/08/10 15:01:04;;;;;;;6.10;3.50;;;23.50;96.90;;;;;;5116873;28;20483;-71
2021/08/10 15:03:29;;;;;;;5.05;3.15;;;23.60;96.80;;;;;;5115277;28;20027;-71
2021/08/10 15:05:55;;;;;;;6.45;3.22;;;23.70;96.70;;;;;;5091100;28;20031;-72
2021/08/10 15:08:20;;;;;;;5.47;3.28;;;23.70;96.60;;;;;;5094665;28;20052;-71
2021/08/10 15:10:46;;;;;;;4.15;3.30;;;23.70;96.80;;;;;;5093640;28;20092;-71
2021/08/10 15:13:12;;;;;;;4.38;3.10;;;23.70;96.80;;;;;;5097878;28;20104;-74
2021/08/10 15:15:38;;;;;;;4.05;3.10;;;23.70;96.70;;;;;;5094577;28;20028;-73
2021/08/10 15:18:03;;;;;;;4.63;3.20;;;23.70;96.90;;;;;;5094539;28;20028;-75
2021/08/10 15:20:30;;;;;;;5.35;3.00;;;23.70;97.00;;;;;;5094505;28;20588;-74
2021/08/10 15:22:56;;;;;;;3.70;2.53;;;23.70;97.00;;;;;;5093806;28;20081;-71
2021/08/10 15:25:22;;;;;;;6.35;2.85;;;23.70;97.10;;;;;;5087185;28;20020;-74
2021/08/10 15:27:48;;;;;;;5.63;3.47;;;23.70;97.20;;;;;;5094823;28;20480;-74
2021/08/10 15:30:16;;;;;;;4.03;2.25;;;23.60;97.30;;;;;;5097252;28;20066;-73
2021/08/10 15:32:47;;;;;;;6.93;2.95;;;23.60;97.30;;;;;;5094031;28;20507;-70
2021/08/10 15:35:13;;;;;;;5.40;3.20;;;23.70;97.40;;;;;;5094168;28;20043;-70
2021/08/10 15:37:39;;;;;;;4.53;2.85;;;23.70;97.30;;;;;;5094321;28;20036;-69
2021/08/10 15:40:06;;;;;;;6.78;2.80;;;23.70;97.30;;;;;;5094704;28;20017;-71
2021/08/10 15:42:32;;;;;;;5.70;2.90;;;23.70;97.30;;;;;;5074831;28;20461;-71
2021/08/10 15:44:58;;;;;;;3.35;2.28;;;23.60;97.20;;;;;;5087439;28;20066;-71
2021/08/10 15:47:24;;;;;;;5.10;2.95;;;23.60;97.20;;;;;;5091644;28;20028;-71
2021/08/10 15:49:50;;;;;;;6.05;2.53;;;23.60;97.10;;;;;;5092200;28;20027;-71
2021/08/10 15:52:16;;;;;;;5.13;2.65;;;23.60;97.10;;;;;;5093129;28;20036;-71
2021/08/10 15:54:41;;;;;;;4.35;2.70;;;23.60;97.10;;;;;;5075827;28;20027;-71
2021/08/10 15:57:07;;;;;;;3.55;2.42;;;23.60;97.10;;;;;;5093700;28;20114;-71
2021/08/10 15:59:34;;;;;;;2.78;2.15;;;23.60;97.20;;;;;;5094007;28;20095;-71
2021/08/10 16:02:00;;;;;;;2.95;2.05;;;23.60;97.30;;;;;;5093717;28;20448;-71
2021/08/10 16:04:26;;;;;;;2.33;1.92;;;23.60;97.20;;;;;;5093398;28;20051;-71
2021/08/10 16:06:52;;;;;;;2.40;2.00;;;23.60;97.30;;;;;;5093438;28;20085;-70
2021/08/10 16:09:18;;;;;;;4.90;1.90;;;23.60;97.30;;;;;;5094267;28;20391;-70
2021/08/10 16:11:43;;;;;;;3.17;2.08;;;23.60;97.20;;;;;;5093556;28;20060;-70
2021/08/10 16:14:09;;;;;;;6.32;2.40;;;23.60;97.20;;;;;;5093617;28;20526;-70
2021/08/10 16:16:35;;;;;;;4.13;2.40;;;23.70;97.10;;;;;;5093638;28;20027;-70
2021/08/10 16:19:01;;;;;;;2.97;1.90;;;23.70;97.10;;;;;;5093142;28;20052;-71
2021/08/10 16:21:27;;;;;;;4.57;2.50;;;23.70;97.10;;;;;;5093054;28;20031;-71
2021/08/10 16:23:52;;;;;;;3.40;1.85;;;23.70;97.10;;;;;;5093196;28;20028;-70
2021/08/10 16:26:18;;;;;;;3.45;2.03;;;23.70;97.00;;;;;;5093657;28;20062;-70
2021/08/10 16:28:44;;;;;;;2.88;1.75;;;23.80;97.00;;;;;;5075051;28;20020;-70
2021/08/10 16:31:09;;;;;;;2.40;1.83;;;23.80;97.00;;;;;;5093014;28;20518;-70
2021/08/10 16:33:35;;;;;;;4.10;1.40;;;23.80;97.00;;;;;;5093359;28;20095;-70
2021/08/10 16:36:03;;;;;;;2.83;1.70;;;23.80;96.90;;;;;;5092876;28;20020;-71
2021/08/10 16:38:30;;;;;;;4.38;1.90;;;23.80;96.80;;;;;;5093306;28;20066;-70
2021/08/10 16:40:56;;;;;;;2.85;1.42;;;23.80;96.70;;;;;;5092855;28;20074;-70
2021/08/10 16:43:22;;;;;;;1.90;1.30;;;23.90;96.80;;;;;;5092940;28;20024;-70
2021/08/10 16:45:48;;;;;;;1.92;1.40;;;23.80;96.70;;;;;;5093214;28;20016;-70
2021/08/10 16:48:14;;;;;;;2.50;1.67;;;23.80;96.70;;;;;;5092773;28;20020;-70
2021/08/10 16:50:40;;;;;;;2.58;1.63;;;23.80;96.70;;;;;;5092817;28;20035;-70
2021/08/10 16:53:06;;;;;;;2.42;1.50;;;23.80;96.70;;;;;;5092707;28;20085;-70
2021/08/10 16:55:31;;;;;;;5.03;1.15;;;23.80;96.60;;;;;;5092926;28;20043;-70
2021/08/10 16:57:57;;;;;;;1.92;1.20;;;23.90;96.50;;;;;;5099736;28;20102;-71
2021/08/10 17:00:23;;;;;;;1.88;1.30;;;23.80;96.50;;;;;;5113150;28;20088;-70
2021/08/10 17:02:48;;;;;;;2.33;1.50;;;23.80;96.50;;;;;;5113146;28;20057;-71
2021/08/10 17:05:15;;;;;;;3.47;1.20;;;23.90;96.40;;;;;;5112735;28;20099;-71
2021/08/10 17:07:41;;;;;;;2.38;1.10;;;23.90;96.30;;;;;;5094692;28;20387;-71
2021/08/10 17:10:08;;;;;;;5.75;1.35;;;23.80;96.20;;;;;;5112845;28;20030;-71
2021/08/10 17:12:36;;;;;;;1.85;1.00;;;23.90;96.20;;;;;;5112869;28;20085;-71
2021/08/10 17:15:06;;;;;;;5.28;1.30;;;23.80;96.20;;;;;;5111884;28;20042;-71
2021/08/10 17:17:32;;;;;;;8.25;1.40;;;23.80;96.30;;;;;;5112438;28;20495;-70
2021/08/10 17:19:57;;;;;;;1.58;0.90;;;23.80;96.30;;;;;;5109217;28;20024;-70
2021/08/10 17:22:23;;;;;;;2.75;1.05;;;23.80;96.20;;;;;;5092177;28;20016;-71
2021/08/10 17:24:49;;;;;;;4.63;1.40;;;23.80;96.10;;;;;;5092442;28;20024;-70
2021/08/10 17:27:16;;;;;;;3.03;1.10;;;23.80;96.40;;;;;;5094312;28;20016;-71
2021/08/10 17:29:41;;;;;;;3.88;1.02;;;23.80;96.30;;;;;;5104465;28;20038;-71
2021/08/10 17:32:07;;;;;;;2.42;0.90;;;23.80;96.30;;;;;;5097236;28;20031;-71
2021/08/10 17:34:33;;;;;;;5.75;0.90;;;23.70;96.30;;;;;;5090603;28;20024;-71
2021/08/10 17:36:58;;;;;;;1.73;1.00;;;23.70;96.40;;;;;;5091633;28;20495;-70
2021/08/10 17:39:24;;;;;;;1.75;1.00;;;23.80;96.40;;;;;;5091931;28;20392;-73
2021/08/10 17:41:50;;;;;;;2.63;0.90;;;23.70;96.60;;;;;;5091236;28;20055;-69
2021/08/10 17:44:15;;;;;;;1.70;0.73;;;23.70;96.70;;;;;;5091885;28;20028;-70
2021/08/10 17:46:41;;;;;;;2.65;0.70;;;23.70;96.60;;;;;;5075144;28;20020;-70
2021/08/10 17:49:06;;;;;;;2.53;0.75;;;23.70;96.50;;;;;;5053526;28;20029;-70
2021/08/10 17:51:32;;;;;;;2.42;0.75;;;23.70;96.20;;;;;;5071465;28;20043;-70
2021/08/10 17:53:58;;;;;;;1.95;0.63;;;23.60;95.90;;;;;;5071386;28;20032;-70
2021/08/10 17:56:24;;;;;;;3.95;0.77;;;23.60;96.10;;;;;;5071484;28;20024;-72
2021/08/10 17:58:50;;;;;;;2.92;0.63;;;23.60;96.50;;;;;;5091805;28;20024;-70
2021/08/10 18:01:16;;;;;;;2.50;1.00;;;23.60;96.50;;;;;;5111932;28;20015;-70
2021/08/10 18:03:41;;;;;;;3.10;0.73;;;23.60;96.60;;;;;;5094567;28;20039;-70
2021/08/10 18:06:07;;;;;;;1.88;0.70;;;23.60;96.60;;;;;;5091484;28;20361;-70
2021/08/10 18:08:33;;;;;;;2.10;0.70;;;23.60;96.60;;;;;;5079375;28;20024;-70
2021/08/10 18:10:59;;;;;;;2.50;1.00;;;;;;;;;;5071067;28;20067;-69
2021/08/10 18:13:26;;;;;;;3.25;0.60;;;23.50;96.30;;;;;;5071330;28;20036;-70
2021/08/10 18:15:52;;;;;;;3.20;0.98;;;23.50;96.70;;;;;;5071158;28;20043;-70
2021/08/10 18:18:19;;;;;;;1.85;0.70;;;23.50;96.70;;;;;;5073953;28;20032;-70
2021/08/10 18:20:44;;;;;;;1.42;0.70;;;23.50;96.70;;;;;;5090642;28;20496;-70
2021/08/10 18:23:10;;;;;;;1.33;0.60;;;23.40;96.70;;;;;;5091018;28;20036;-71
2021/08/10 18:25:36;;;;;;;4.32;0.70;;;23.40;96.70;;;;;;5091199;28;20017;-70
2021/08/10 18:28:02;;;;;;;3.00;0.70;;;23.40;96.70;;;;;;5090550;28;20031;-72
2021/08/10 18:30:28;;;;;;;1.73;0.70;;;23.40;96.80;;;;;;5090674;28;20111;-70
2021/08/10 18:32:54;;;;;;;1.45;0.60;;;23.40;96.90;;;;;;5090599;28;20040;-70
2021/08/10 18:35:20;;;;;;;3.38;0.60;;;23.40;96.90;;;;;;5090678;28;20020;-71
2021/08/10 18:37:48;;;;;;;2.25;0.70;;;23.30;96.80;;;;;;5091639;28;20024;-73
2021/08/10 18:40:15;;;;;;;4.22;1.17;;;23.30;97.00;;;;;;5090892;28;20035;-70
2021/08/10 18:42:42;;;;;;;5.55;1.00;;;23.30;96.80;;;;;;5088996;28;20111;-71
2021/08/10 18:45:08;;;;;;;4.10;0.88;;;23.30;96.80;;;;;;5071820;28;20112;-71
2021/08/10 18:47:34;;;;;;;2.13;0.80;;;23.30;97.10;;;;;;5071039;28;20031;-71
2021/08/10 18:49:59;;;;;;;2.50;0.90;;;23.20;97.10;;;;;;5070937;28;20028;-71
2021/08/10 18:52:25;;;;;;;1.77;0.90;;;23.20;97.10;;;;;;5071912;28;20105;-70
2021/08/10 18:54:51;;;;;;;1.73;0.80;;;23.20;97.20;;;;;;5070713;28;20017;-70
2021/08/10 18:57:16;;;;;;;2.13;0.90;;;23.20;97.40;;;;;;5071204;28;20063;-71
2021/08/10 18:59:42;;;;;;;1.15;0.73;;;23.20;97.40;;;;;;5070786;28;20473;-70
2021/08/10 19:02:08;;;;;;;1.63;1.05;;;23.20;97.60;;;;;;5071314;28;20027;-71
2021/08/10 19:04:34;;;;;;;1.83;0.70;;;23.20;97.80;;;;;;5070721;28;20423;-71
2021/08/10 19:07:00;;;;;;;4.93;0.95;;;23.20;97.80;;;;;;5070620;28;20043;-71
2021/08/10 19:09:26;;;;;;;3.38;0.98;;;23.20;97.80;;;;;;5070688;28;20033;-71
2021/08/10 19:11:52;;;;;;;1.30;0.90;;;23.20;97.80;;;;;;5071254;28;20588;-71
2021/08/10 19:14:19;;;;;;;3.35;0.73;;;23.10;98.00;;;;;;5052934;28;20036;-72
2021/08/10 19:16:44;;;;;;;6.22;0.70;;;23.20;98.10;;;;;;5070764;28;20092;-71
2021/08/10 19:19:10;;;;;;;6.90;0.90;;;23.20;98.10;;;;;;5070553;28;20991;-71
2021/08/10 19:21:36;;;;;;;2.25;0.80;;;23.10;98.20;;;;;;5083812;28;20051;-71